Time;durP1;ratioP1;P1;durP2;ratioP2;P2;SDS_P1;SDS_P2;PMS_P1;PMS_P2;Temp;Humidity;BMP_temperature;BMP_pressure;BME280_temperature;BME280_humidity;BME280_pressure;Samples;Min_cycle;Max_cycle;Signal;HPM_P1;HPM_P2
2022/03/12 00:01:06;;;;;;;10.60;2.78;;;8.40;99.90;;;;;;5019205;28;20045;-60
2022/03/12 00:03:35;;;;;;;9.30;2.10;;;8.40;99.90;;;;;;5026564;28;20045;-59
2022/03/12 00:06:06;;;;;;;10.00;2.40;;;8.30;99.90;;;;;;5009568;28;20064;-56
2022/03/12 00:08:40;;;;;;;14.60;3.10;;;8.30;99.90;;;;;;5025972;28;20045;-58
2022/03/12 00:11:13;;;;;;;11.40;2.67;;;8.30;99.90;;;;;;5027016;28;20073;-58
2022/03/12 00:13:42;;;;;;;6.47;2.03;;;8.30;99.90;;;;;;5019686;28;20045;-58
2022/03/12 00:16:15;;;;;;;13.18;2.53;;;8.30;99.90;;;;;;5026594;28;20056;-59
2022/03/12 00:18:46;;;;;;;8.52;1.90;;;8.30;99.90;;;;;;5024592;28;20068;-58
2022/03/12 00:21:16;;;;;;;9.60;2.47;;;8.30;99.90;;;;;;5027124;28;20511;-58
2022/03/12 00:23:47;;;;;;;14.48;2.13;;;8.20;99.90;;;;;;5025393;28;20057;-58
2022/03/12 00:26:16;;;;;;;9.52;1.58;;;8.20;99.90;;;;;;5026873;28;20045;-58
2022/03/12 00:28:44;;;;;;;9.00;2.67;;;8.20;99.90;;;;;;5019550;28;20049;-59
2022/03/12 00:31:13;;;;;;;10.47;1.77;;;8.10;99.90;;;;;;5025936;28;20049;-58
2022/03/12 00:33:41;;;;;;;8.70;2.03;;;8.10;99.90;;;;;;5026637;28;20290;-58
2022/03/12 00:36:09;;;;;;;7.22;1.98;;;8.10;99.90;;;;;;5009474;28;20064;-58
2022/03/12 00:38:36;;;;;;;10.88;2.08;;;8.00;99.90;;;;;;5022385;28;20588;-58
2022/03/12 00:41:07;;;;;;;8.75;1.88;;;8.00;99.90;;;;;;5012236;28;20053;-58
2022/03/12 00:43:35;;;;;;;14.65;2.45;;;8.10;99.90;;;;;;5024722;28;20050;-58
2022/03/12 00:46:05;;;;;;;10.93;2.53;;;8.10;99.90;;;;;;5029415;28;20049;-58
2022/03/12 00:48:34;;;;;;;10.30;2.10;;;8.10;99.90;;;;;;5012182;28;20041;-59
2022/03/12 00:51:07;;;;;;;9.77;2.83;;;8.10;99.90;;;;;;5014825;28;20057;-58
2022/03/12 00:53:35;;;;;;;9.47;2.20;;;8.10;99.90;;;;;;5009851;28;20041;-59
2022/03/12 00:56:05;;;;;;;10.02;2.05;;;8.10;99.90;;;;;;5029768;28;20042;-59
2022/03/12 00:58:35;;;;;;;5.95;2.35;;;8.10;99.90;;;;;;5025483;28;20080;-59
2022/03/12 01:01:03;;;;;;;11.13;2.63;;;8.10;99.90;;;;;;5025381;28;20056;-59
2022/03/12 01:03:32;;;;;;;10.27;2.50;;;8.10;99.90;;;;;;5013375;28;20056;-59
2022/03/12 01:06:01;;;;;;;13.10;2.38;;;8.10;99.90;;;;;;5022201;28;20401;-59
2022/03/12 01:08:31;;;;;;;13.35;2.35;;;8.20;99.90;;;;;;5028396;28;20037;-59
2022/03/12 01:11:01;;;;;;;7.70;2.08;;;8.20;99.90;;;;;;5028889;28;20045;-59
2022/03/12 01:13:28;;;;;;;;;;;8.20;99.90;;;;;;5011151;28;20489;-59
2022/03/12 01:15:57;;;;;;;6.63;2.00;;;8.20;99.90;;;;;;5028125;28;20397;-59
2022/03/12 01:18:25;;;;;;;13.00;2.13;;;8.20;99.90;;;;;;5028230;28;20041;-59
2022/03/12 01:20:53;;;;;;;9.95;2.13;;;8.10;99.90;;;;;;5028742;28;20049;-59
2022/03/12 01:23:24;;;;;;;12.52;2.72;;;8.10;99.90;;;;;;5028868;28;20405;-59
2022/03/12 01:25:53;;;;;;;6.65;2.22;;;8.10;99.90;;;;;;5027626;28;20049;-59
2022/03/12 01:28:29;;;;;;;9.27;2.17;;;8.10;99.90;;;;;;5027223;28;20054;-59
2022/03/12 01:30:58;;;;;;;9.45;2.38;;;8.10;99.90;;;;;;5009456;28;20072;-59
2022/03/12 01:33:26;;;;;;;10.98;2.35;;;8.20;99.90;;;;;;5009363;28;20631;-59
2022/03/12 01:35:53;;;;;;;8.23;2.80;;;8.10;99.90;;;;;;5027332;28;20046;-59
2022/03/12 01:38:35;;;;;;;5.55;1.95;;;8.20;99.90;;;;;;5027682;28;20046;-59
2022/03/12 01:41:03;;;;;;;5.72;1.95;;;8.20;99.90;;;;;;5027813;28;20053;-59
2022/03/12 01:43:32;;;;;;;15.25;2.30;;;8.20;99.90;;;;;;5028968;28;20052;-59
2022/03/12 01:46:01;;;;;;;5.55;1.90;;;8.20;99.90;;;;;;5011479;28;20064;-59
2022/03/12 01:48:30;;;;;;;9.75;2.33;;;8.20;99.90;;;;;;5027934;28;20037;-59
2022/03/12 01:50:59;;;;;;;9.80;2.17;;;8.20;99.90;;;;;;5028137;28;20049;-59
2022/03/12 01:53:27;;;;;;;6.38;1.65;;;8.20;99.90;;;;;;5028342;28;20049;-59
2022/03/12 01:55:55;;;;;;;12.60;2.08;;;8.20;99.90;;;;;;5027997;28;20053;-59
2022/03/12 01:58:24;;;;;;;10.25;2.58;;;8.20;99.90;;;;;;5028015;28;20477;-59
2022/03/12 02:00:57;;;;;;;10.25;1.70;;;8.20;99.90;;;;;;5023019;28;20049;-58
2022/03/12 02:03:31;;;;;;;14.27;3.08;;;8.20;99.90;;;;;;5027500;28;20056;-59
2022/03/12 02:05:59;;;;;;;13.88;1.88;;;8.20;99.90;;;;;;5028179;28;20041;-59
2022/03/12 02:08:28;;;;;;;11.43;2.28;;;8.20;99.90;;;;;;5027090;28;20404;-59
2022/03/12 02:10:57;;;;;;;6.90;1.48;;;8.20;99.90;;;;;;5020935;28;20045;-59
2022/03/12 02:13:27;;;;;;;8.02;1.50;;;8.20;99.90;;;;;;5027644;28;20053;-59
2022/03/12 02:16:06;;;;;;;6.43;1.33;;;8.20;99.90;;;;;;5010633;28;20057;-59
2022/03/12 02:18:38;;;;;;;12.30;1.75;;;8.30;99.90;;;;;;5018032;28;20389;-59
2022/03/12 02:21:06;;;;;;;9.90;1.50;;;8.20;99.90;;;;;;5020498;28;20042;-59
2022/03/12 02:23:49;;;;;;;10.23;1.42;;;8.30;99.90;;;;;;5027516;28;20041;-59
2022/03/12 02:26:17;;;;;;;7.00;1.77;;;8.20;99.90;;;;;;5020022;28;20068;-59
2022/03/12 02:28:45;;;;;;;4.93;1.55;;;8.30;99.90;;;;;;5027274;28;20059;-59
2022/03/12 02:31:15;;;;;;;14.93;1.80;;;8.30;99.90;;;;;;5018406;28;20038;-59
2022/03/12 02:33:44;;;;;;;8.57;1.52;;;8.30;99.90;;;;;;5030007;28;20060;-59
2022/03/12 02:36:13;;;;;;;4.03;0.93;;;8.30;99.90;;;;;;5030798;28;20060;-59
2022/03/12 02:38:42;;;;;;;11.00;1.90;;;8.30;99.90;;;;;;5020769;28;20042;-59
2022/03/12 02:41:13;;;;;;;6.47;1.08;;;8.30;99.90;;;;;;5024166;28;20045;-59
2022/03/12 02:43:44;;;;;;;5.82;1.50;;;8.30;99.90;;;;;;5030286;28;20037;-59
2022/03/12 02:46:16;;;;;;;6.93;1.20;;;8.30;99.90;;;;;;5029609;28;20054;-59
2022/03/12 02:48:50;;;;;;;4.10;1.13;;;8.30;99.90;;;;;;5030954;28;20053;-59
2022/03/12 02:51:22;;;;;;;9.40;2.58;;;8.30;99.90;;;;;;5030527;28;20050;-59
2022/03/12 02:53:51;;;;;;;9.35;1.08;;;8.30;99.90;;;;;;5019827;28;20049;-59
2022/03/12 02:56:19;;;;;;;12.55;1.38;;;8.30;99.90;;;;;;5013341;28;20045;-59
2022/03/12 02:58:47;;;;;;;7.75;1.13;;;8.20;99.90;;;;;;5029683;28;20378;-58
2022/03/12 03:01:15;;;;;;;7.80;1.30;;;8.20;99.90;;;;;;5030590;28;20049;-59
2022/03/12 03:03:44;;;;;;;10.80;1.55;;;8.20;99.90;;;;;;5012988;28;20081;-59
2022/03/12 03:06:15;;;;;;;8.10;1.30;;;8.20;99.90;;;;;;5016607;28;20048;-59
2022/03/12 03:08:44;;;;;;;7.07;1.10;;;8.20;99.90;;;;;;5034077;28;20038;-58
2022/03/12 03:11:15;;;;;;;3.90;0.90;;;8.10;99.90;;;;;;5025741;28;20049;-58
2022/03/12 03:13:44;;;;;;;7.93;1.70;;;8.10;99.90;;;;;;5033988;28;20046;-59
2022/03/12 03:16:19;;;;;;;4.20;1.20;;;8.10;99.90;;;;;;5034662;28;20053;-58
2022/03/12 03:18:53;;;;;;;6.60;1.52;;;8.10;99.90;;;;;;5027827;28;20045;-59
2022/03/12 03:21:24;;;;;;;7.00;1.35;;;8.10;99.90;;;;;;5034583;28;20045;-58
2022/03/12 03:23:53;;;;;;;7.75;1.30;;;8.10;99.90;;;;;;5022266;28;20049;-58
2022/03/12 03:26:33;;;;;;;8.07;2.15;;;8.00;99.90;;;;;;5034253;28;20477;-58
2022/03/12 03:29:02;;;;;;;6.72;1.40;;;8.10;99.90;;;;;;5034062;28;20060;-58
2022/03/12 03:31:30;;;;;;;4.45;0.90;;;8.00;99.90;;;;;;5034446;28;20049;-58
2022/03/12 03:33:57;;;;;;;4.43;0.93;;;8.10;99.90;;;;;;5033813;28;20057;-58
2022/03/12 03:36:25;;;;;;;9.10;1.63;;;8.00;99.90;;;;;;5034637;28;20045;-58
2022/03/12 03:38:53;;;;;;;7.78;1.42;;;8.00;99.90;;;;;;5019109;28;20702;-58
2022/03/12 03:41:20;;;;;;;6.43;0.80;;;8.10;99.90;;;;;;5034341;28;20053;-58
2022/03/12 03:43:48;;;;;;;7.07;1.70;;;8.10;99.90;;;;;;5033925;28;20421;-59
2022/03/12 03:46:19;;;;;;;4.95;1.02;;;8.10;99.90;;;;;;5034243;28;20401;-58
2022/03/12 03:48:52;;;;;;;4.18;1.05;;;8.00;99.90;;;;;;5021834;28;20049;-58
2022/03/12 03:51:20;;;;;;;7.65;1.02;;;8.00;99.90;;;;;;5032690;28;20485;-58
2022/03/12 03:53:49;;;;;;;9.70;1.23;;;8.00;99.90;;;;;;5033230;28;20053;-58
2022/03/12 03:56:17;;;;;;;5.78;0.80;;;8.00;99.90;;;;;;5032351;28;20401;-59
2022/03/12 03:58:45;;;;;;;7.75;1.08;;;8.00;99.90;;;;;;5033378;28;20045;-59
2022/03/12 04:01:18;;;;;;;12.20;1.02;;;8.00;99.90;;;;;;5033370;28;20053;-59
2022/03/12 04:03:48;;;;;;;4.47;1.10;;;8.00;99.90;;;;;;5016339;28;20050;-59
2022/03/12 04:06:16;;;;;;;4.68;0.90;;;8.00;99.90;;;;;;5033883;28;20052;-59
2022/03/12 04:08:45;;;;;;;3.45;0.70;;;8.00;99.90;;;;;;5032872;28;20042;-59
2022/03/12 04:11:17;;;;;;;2.95;0.75;;;8.00;99.90;;;;;;5033602;28;20042;-58
2022/03/12 04:13:47;;;;;;;3.25;0.73;;;8.00;99.90;;;;;;5033563;28;20401;-58
2022/03/12 04:16:16;;;;;;;3.08;0.85;;;8.00;99.90;;;;;;5033871;28;20052;-58
2022/03/12 04:18:46;;;;;;;5.13;0.70;;;8.00;99.90;;;;;;5032831;28;20052;-58
2022/03/12 04:21:16;;;;;;;5.10;0.82;;;8.00;99.90;;;;;;5032387;28;20033;-58
2022/03/12 04:23:45;;;;;;;2.00;0.95;;;8.00;99.90;;;;;;5033292;28;20068;-59
2022/03/12 04:26:14;;;;;;;2.75;0.82;;;7.90;99.90;;;;;;5033291;28;20045;-59
2022/03/12 04:28:42;;;;;;;5.25;0.90;;;7.90;99.90;;;;;;5032024;28;20045;-59
2022/03/12 04:31:11;;;;;;;4.13;0.70;;;7.90;99.90;;;;;;5014832;28;20060;-59
2022/03/12 04:33:39;;;;;;;6.82;0.95;;;7.90;99.90;;;;;;5032050;28;20488;-59
2022/03/12 04:36:12;;;;;;;4.53;0.80;;;7.90;99.90;;;;;;5032988;28;20050;-59
2022/03/12 04:38:41;;;;;;;3.55;0.93;;;7.90;99.90;;;;;;5019323;28;20054;-59
2022/03/12 04:41:11;;;;;;;3.58;0.82;;;7.90;99.90;;;;;;5032988;28;20042;-59
2022/03/12 04:43:40;;;;;;;3.95;1.00;;;7.90;99.90;;;;;;5032237;28;20045;-59
2022/03/12 04:46:07;;;;;;;6.68;1.15;;;7.80;99.90;;;;;;5032479;28;20037;-59
2022/03/12 04:48:35;;;;;;;5.25;0.80;;;7.80;99.90;;;;;;5032168;28;20397;-59
2022/03/12 04:51:03;;;;;;;5.57;0.95;;;7.80;99.90;;;;;;5013303;28;20528;-59
2022/03/12 04:53:30;;;;;;;4.20;0.80;;;7.80;99.90;;;;;;5016134;28;20033;-59
2022/03/12 04:55:58;;;;;;;2.88;0.90;;;7.70;99.90;;;;;;5033006;28;20041;-58
2022/03/12 04:58:26;;;;;;;5.38;1.23;;;7.70;99.90;;;;;;5031433;28;20512;-59
2022/03/12 05:00:54;;;;;;;3.95;1.33;;;7.60;99.90;;;;;;5031756;28;20041;-58
2022/03/12 05:03:23;;;;;;;2.78;1.15;;;7.60;99.90;;;;;;5032849;28;20057;-59
2022/03/12 05:05:53;;;;;;;5.53;0.90;;;7.60;99.90;;;;;;5032242;28;20045;-59
2022/03/12 05:08:36;;;;;;;3.30;1.02;;;7.50;99.90;;;;;;5031693;28;20046;-59
2022/03/12 05:11:04;;;;;;;3.83;1.00;;;7.50;99.90;;;;;;5015208;28;20045;-59
2022/03/12 05:13:34;;;;;;;1.55;0.93;;;7.50;99.90;;;;;;5032034;28;20053;-59
2022/03/12 05:16:05;;;;;;;4.05;1.23;;;7.50;99.90;;;;;;5031494;28;20060;-59
2022/03/12 05:18:36;;;;;;;5.10;1.02;;;7.50;99.90;;;;;;5025789;28;20044;-58
2022/03/12 05:21:05;;;;;;;1.17;0.60;;;7.50;99.90;;;;;;5032219;28;20040;-58
2022/03/12 05:23:33;;;;;;;5.07;1.33;;;7.50;99.90;;;;;;5031530;28;20370;-58
2022/03/12 05:26:00;;;;;;;6.43;1.20;;;7.50;99.90;;;;;;5031630;28;20049;-58
2022/03/12 05:28:32;;;;;;;2.75;0.77;;;7.50;99.90;;;;;;5031195;28;20058;-58
2022/03/12 05:31:04;;;;;;;6.15;0.77;;;7.50;99.90;;;;;;5024489;28;20052;-58
2022/03/12 05:33:35;;;;;;;4.15;0.80;;;7.60;99.90;;;;;;5031438;28;20417;-58
2022/03/12 05:36:04;;;;;;;4.72;1.15;;;7.50;99.90;;;;;;5032217;28;20045;-58
2022/03/12 05:38:34;;;;;;;3.30;0.77;;;7.60;99.90;;;;;;5031461;28;20486;-58
2022/03/12 05:41:10;;;;;;;3.67;0.70;;;7.50;99.90;;;;;;5030765;28;20037;-58
2022/03/12 05:43:43;;;;;;;1.00;0.80;;;7.60;99.90;;;;;;5032027;28;20049;-58
2022/03/12 05:46:14;;;;;;;4.13;0.93;;;7.50;99.90;;;;;;5031281;28;20404;-58
2022/03/12 05:48:47;;;;;;;2.28;0.63;;;7.60;99.90;;;;;;5020469;28;20413;-58
2022/03/12 05:51:16;;;;;;;3.67;1.17;;;7.50;99.90;;;;;;5002254;28;20034;-58
2022/03/12 05:53:44;;;;;;;4.03;0.70;;;7.60;99.90;;;;;;5014787;28;20045;-58
2022/03/12 05:56:12;;;;;;;4.75;0.50;;;7.50;99.90;;;;;;5027930;28;20065;-57
2022/03/12 05:58:40;;;;;;;5.32;0.63;;;7.50;99.90;;;;;;5003540;28;20405;-58
2022/03/12 06:01:09;;;;;;;2.72;0.60;;;7.50;99.90;;;;;;5028283;28;20057;-58
2022/03/12 06:03:37;;;;;;;2.90;0.50;;;7.50;99.90;;;;;;5011915;28;20528;-58
2022/03/12 06:06:05;;;;;;;4.07;0.60;;;7.50;99.90;;;;;;5008049;28;20444;-58
2022/03/12 06:08:34;;;;;;;1.42;0.70;;;7.50;99.90;;;;;;5024658;28;20041;-58
2022/03/12 06:11:02;;;;;;;5.15;0.50;;;7.50;99.90;;;;;;5024201;28;20374;-58
2022/03/12 06:13:32;;;;;;;3.03;0.40;;;7.50;99.90;;;;;;5024355;28;20530;-59
2022/03/12 06:16:02;;;;;;;0.60;0.30;;;7.40;99.90;;;;;;5006887;28;20046;-59
2022/03/12 06:18:35;;;;;;;2.53;0.30;;;7.40;99.90;;;;;;5024445;28;20493;-59
2022/03/12 06:21:04;;;;;;;3.90;0.50;;;7.40;99.90;;;;;;5015020;28;20440;-59
2022/03/12 06:23:33;;;;;;;2.42;0.40;;;7.40;99.90;;;;;;5024403;28;20064;-58
2022/03/12 06:26:02;;;;;;;1.58;0.38;;;7.40;99.90;;;;;;5025115;28;20046;-58
2022/03/12 06:28:32;;;;;;;;;;;7.40;99.90;;;;;;5024732;28;20057;-58
2022/03/12 06:31:00;;;;;;;3.28;0.30;;;7.40;99.90;;;;;;5022471;28;19925;-58
2022/03/12 06:33:29;;;;;;;2.28;0.30;;;7.40;99.90;;;;;;5019379;28;20041;-58
2022/03/12 06:35:57;;;;;;;3.33;1.02;;;7.40;99.90;;;;;;5027870;28;20053;-58
2022/03/12 06:38:26;;;;;;;2.88;0.28;;;7.40;99.90;;;;;;5009050;28;20092;-59
2022/03/12 06:40:58;;;;;;;0.20;0.20;;;7.40;99.90;;;;;;5029261;28;20042;-59
2022/03/12 06:43:28;;;;;;;1.48;0.30;;;7.30;99.90;;;;;;5031001;28;20057;-59
2022/03/12 06:45:58;;;;;;;2.08;0.30;;;7.30;99.90;;;;;;5031449;28;20037;-58
2022/03/12 06:48:26;;;;;;;0.30;0.20;;;7.30;99.90;;;;;;5026700;28;20041;-59
2022/03/12 06:50:54;;;;;;;0.80;0.25;;;7.20;99.90;;;;;;5031235;28;20056;-59
2022/03/12 06:53:22;;;;;;;4.05;0.30;;;7.20;99.90;;;;;;5029450;28;20042;-59
2022/03/12 06:55:50;;;;;;;0.38;0.17;;;7.20;99.90;;;;;;5032444;28;20041;-59
2022/03/12 06:58:18;;;;;;;1.08;0.30;;;7.20;99.90;;;;;;5031684;28;20049;-59
2022/03/12 07:00:45;;;;;;;4.20;0.85;;;7.10;99.90;;;;;;5030277;28;20048;-58
2022/03/12 07:03:13;;;;;;;1.40;0.30;;;7.10;99.90;;;;;;5018595;28;20050;-58
2022/03/12 07:05:41;;;;;;;2.90;0.20;;;7.10;99.90;;;;;;5010538;28;20052;-59
2022/03/12 07:08:09;;;;;;;3.33;0.40;;;7.10;99.90;;;;;;5013120;28;20057;-59
2022/03/12 07:10:36;;;;;;;1.30;0.20;;;7.10;99.90;;;;;;5030702;28;20037;-59
2022/03/12 07:13:04;;;;;;;1.55;0.38;;;7.10;99.90;;;;;;5030052;28;20370;-59
2022/03/12 07:15:32;;;;;;;2.55;0.32;;;7.10;99.90;;;;;;5030714;28;20056;-59
2022/03/12 07:18:00;;;;;;;0.38;0.20;;;7.10;99.90;;;;;;5030983;28;20413;-59
2022/03/12 07:20:28;;;;;;;0.73;0.20;;;7.10;99.90;;;;;;4996112;28;20505;-59
2022/03/12 07:22:55;;;;;;;3.63;0.28;;;7.10;99.90;;;;;;5027605;28;20049;-58
2022/03/12 07:25:27;;;;;;;1.90;0.90;;;7.10;99.90;;;;;;5026912;28;20060;-58
2022/03/12 07:27:55;;;;;;;0.82;0.30;;;7.10;99.90;;;;;;5017278;28;20052;-58
2022/03/12 07:30:23;;;;;;;3.63;0.20;;;7.10;99.90;;;;;;5030417;28;20056;-59
2022/03/12 07:32:51;;;;;;;2.55;0.35;;;7.20;99.90;;;;;;5013231;28;20121;-59
2022/03/12 07:35:19;;;;;;;2.30;0.20;;;7.20;99.90;;;;;;5022390;28;20512;-59
2022/03/12 07:37:49;;;;;;;2.53;1.00;;;7.10;99.90;;;;;;5030613;28;20879;-58
2022/03/12 07:40:17;;;;;;;4.47;2.30;;;7.20;99.90;;;;;;5030275;28;20048;-60
2022/03/12 07:42:47;;;;;;;4.47;2.45;;;7.20;99.90;;;;;;5030774;28;20041;-59
2022/03/12 07:45:15;;;;;;;;;;;7.10;99.90;;;;;;5031917;28;20050;-59
2022/03/12 07:47:44;;;;;;;1.40;1.20;;;7.20;99.90;;;;;;5026567;28;20312;-60
2022/03/12 07:50:15;;;;;;;4.35;1.08;;;7.20;99.90;;;;;;5016860;28;20045;-59
2022/03/12 07:52:43;;;;;;;0.93;0.65;;;7.20;99.90;;;;;;5029325;28;20513;-59
2022/03/12 07:55:12;;;;;;;0.70;0.50;;;7.30;99.90;;;;;;5016563;28;20052;-59
2022/03/12 07:57:41;;;;;;;1.23;0.60;;;7.30;99.90;;;;;;5023163;28;20040;-58
2022/03/12 08:00:12;;;;;;;1.17;0.80;;;7.40;99.90;;;;;;5030649;28;20037;-58
2022/03/12 08:02:47;;;;;;;3.28;0.55;;;7.40;99.90;;;;;;5023949;28;20045;-59
2022/03/12 08:05:17;;;;;;;3.42;1.02;;;7.40;99.90;;;;;;5000895;28;20053;-58
2022/03/12 08:07:45;;;;;;;1.88;0.50;;;7.40;99.90;;;;;;5028713;28;20048;-59
2022/03/12 08:10:13;;;;;;;3.55;0.60;;;7.00;99.90;;;;;;5013515;28;20053;-59
2022/03/12 08:12:40;;;;;;;5.72;1.08;;;7.50;99.90;;;;;;5029550;28;20037;-58
2022/03/12 08:15:12;;;;;;;1.67;0.95;;;7.40;99.90;;;;;;5029778;28;20041;-58
2022/03/12 08:17:44;;;;;;;4.07;0.60;;;7.40;99.90;;;;;;5011723;28;20079;-59
2022/03/12 08:20:12;;;;;;;4.63;0.40;;;7.30;99.90;;;;;;4998564;28;20393;-58
2022/03/12 08:22:41;;;;;;;6.03;0.88;;;7.30;99.90;;;;;;5030377;28;20049;-59
2022/03/12 08:25:10;;;;;;;;;;;7.30;99.90;;;;;;5013044;28;20143;-59
2022/03/12 08:27:38;;;;;;;3.80;0.52;;;7.40;99.90;;;;;;5029405;28;20174;-58
2022/03/12 08:30:07;;;;;;;4.60;0.85;;;7.30;99.90;;;;;;5025513;28;20060;-58
2022/03/12 08:32:36;;;;;;;1.48;0.60;;;7.30;99.90;;;;;;5028391;28;20038;-58
2022/03/12 08:35:05;;;;;;;3.03;0.65;;;7.40;99.90;;;;;;5025002;28;20065;-58
2022/03/12 08:37:34;;;;;;;3.95;0.88;;;7.40;99.90;;;;;;5013964;28;20042;-59
2022/03/12 08:40:06;;;;;;;5.45;0.50;;;7.40;99.90;;;;;;5029781;28;20061;-59
2022/03/12 08:42:37;;;;;;;7.97;0.57;;;7.40;99.90;;;;;;5027463;28;20391;-59
2022/03/12 08:45:07;;;;;;;3.63;0.73;;;7.50;99.90;;;;;;5011531;28;20049;-59
2022/03/12 08:47:35;;;;;;;4.53;0.65;;;7.60;99.90;;;;;;5028958;28;20034;-59
2022/03/12 08:50:08;;;;;;;7.47;0.65;;;7.70;99.90;;;;;;5017572;28;20437;-59
2022/03/12 08:52:37;;;;;;;5.93;0.60;;;7.80;99.90;;;;;;5028703;28;20042;-59
2022/03/12 08:55:06;;;;;;;5.25;0.60;;;7.80;99.90;;;;;;5029120;28;20049;-59
2022/03/12 08:57:34;;;;;;;6.63;1.23;;;7.90;99.90;;;;;;5011352;28;20054;-59
2022/03/12 09:00:08;;;;;;;3.80;0.47;;;7.90;99.90;;;;;;5028645;28;20305;-59
2022/03/12 09:02:37;;;;;;;5.85;1.15;;;7.90;99.90;;;;;;5027802;28;20037;-59
2022/03/12 09:05:07;;;;;;;3.13;0.32;;;7.80;99.90;;;;;;5021973;28;20485;-59
2022/03/12 09:07:35;;;;;;;21.52;2.03;;;7.80;99.90;;;;;;5013358;28;20429;-59
2022/03/12 09:10:05;;;;;;;4.57;0.55;;;7.80;99.90;;;;;;5028130;28;20038;-59
2022/03/12 09:12:32;;;;;;;4.63;0.70;;;7.80;99.90;;;;;;5027011;28;20056;-59
2022/03/12 09:15:00;;;;;;;3.40;0.50;;;7.90;99.90;;;;;;5027559;28;20068;-59
2022/03/12 09:17:28;;;;;;;3.58;0.40;;;7.90;99.90;;;;;;5028184;28;20405;-59
2022/03/12 09:19:58;;;;;;;1.65;0.60;;;7.90;99.90;;;;;;5027853;28;20627;-59
2022/03/12 09:22:26;;;;;;;4.78;0.80;;;8.10;99.90;;;;;;5028688;28;20050;-60
2022/03/12 09:24:53;;;;;;;2.70;0.70;;;8.10;99.90;;;;;;5027138;28;20050;-59
2022/03/12 09:27:21;;;;;;;2.08;0.50;;;8.20;99.90;;;;;;5017038;28;20045;-60
2022/03/12 09:29:50;;;;;;;3.53;0.40;;;8.20;99.90;;;;;;5028603;28;20056;-59
2022/03/12 09:32:18;;;;;;;1.92;0.30;;;8.20;99.90;;;;;;5028026;28;20049;-59
2022/03/12 09:34:46;;;;;;;5.70;0.65;;;8.20;99.90;;;;;;5015725;28;20486;-59
2022/03/12 09:37:18;;;;;;;9.00;1.10;;;8.20;99.90;;;;;;5023377;28;20397;-60
2022/03/12 09:39:47;;;;;;;5.80;0.65;;;8.20;99.90;;;;;;5028463;28;20057;-59
2022/03/12 09:42:14;;;;;;;4.75;1.10;;;8.30;99.90;;;;;;5027991;28;20069;-60
2022/03/12 09:44:42;;;;;;;1.95;0.50;;;8.30;99.90;;;;;;5029023;28;20052;-59
2022/03/12 09:47:11;;;;;;;8.55;1.02;;;8.40;99.90;;;;;;5027430;28;20042;-60
2022/03/12 09:49:39;;;;;;;6.72;0.90;;;8.50;99.90;;;;;;5019103;28;20050;-60
2022/03/12 09:52:09;;;;;;;4.82;0.70;;;8.50;99.90;;;;;;5027953;28;20046;-59
2022/03/12 09:54:36;;;;;;;;;;;8.60;99.90;;;;;;5028444;28;20517;-59
2022/03/12 09:57:05;;;;;;;3.40;0.63;;;8.60;99.90;;;;;;5027737;28;20292;-59
2022/03/12 09:59:33;;;;;;;2.75;0.60;;;8.70;99.90;;;;;;5027931;28;20060;-59
2022/03/12 10:02:01;;;;;;;5.43;0.60;;;8.80;99.90;;;;;;5006848;28;20041;-58
2022/03/12 10:04:28;;;;;;;2.67;0.60;;;8.90;99.90;;;;;;5022960;28;20049;-57
2022/03/12 10:06:57;;;;;;;5.38;0.63;;;9.00;99.90;;;;;;5025971;28;20052;-58
2022/03/12 10:09:25;;;;;;;5.28;1.30;;;9.10;99.90;;;;;;5026043;28;20041;-59
2022/03/12 10:11:53;;;;;;;3.72;0.52;;;9.10;99.90;;;;;;5027253;28;20041;-59
2022/03/12 10:14:24;;;;;;;3.08;0.77;;;9.10;99.90;;;;;;5008602;28;20038;-60
2022/03/12 10:16:53;;;;;;;3.83;0.82;;;9.20;99.90;;;;;;5008550;28;20045;-58
2022/03/12 10:19:21;;;;;;;5.10;0.70;;;9.20;99.90;;;;;;5020824;28;20041;-59
2022/03/12 10:21:52;;;;;;;5.15;1.00;;;9.20;99.90;;;;;;5026570;28;20049;-59
2022/03/12 10:24:20;;;;;;;2.17;0.70;;;9.30;99.90;;;;;;5026594;28;20048;-58
2022/03/12 10:26:50;;;;;;;3.67;0.70;;;9.30;99.90;;;;;;5026170;28;20192;-58
2022/03/12 10:29:19;;;;;;;1.52;0.65;;;9.40;99.90;;;;;;5023741;28;20046;-58
2022/03/12 10:31:47;;;;;;;8.55;1.42;;;9.50;99.90;;;;;;5008045;28;20654;-58
2022/03/12 10:34:21;;;;;;;5.45;0.50;;;9.70;99.90;;;;;;5008474;28;20677;-58
2022/03/12 10:36:54;;;;;;;2.35;0.60;;;9.80;99.90;;;;;;5021586;28;20056;-58
2022/03/12 10:39:37;;;;;;;3.13;0.75;;;9.80;99.90;;;;;;5026077;28;20061;-58
2022/03/12 10:42:07;;;;;;;3.83;1.00;;;9.80;99.90;;;;;;5026440;28;20050;-58
2022/03/12 10:44:37;;;;;;;4.45;0.82;;;9.80;99.90;;;;;;5027729;28;20057;-59
2022/03/12 10:47:24;;;;;;;4.95;0.77;;;9.80;99.90;;;;;;5013836;28;20057;-59
2022/03/12 10:49:58;;;;;;;6.15;0.90;;;9.80;99.90;;;;;;5017500;28;20065;-57
2022/03/12 10:52:29;;;;;;;3.42;0.60;;;9.90;99.90;;;;;;5024791;28;20042;-57
2022/03/12 10:54:58;;;;;;;4.40;0.80;;;10.00;99.90;;;;;;5021991;28;20045;-57
2022/03/12 10:57:27;;;;;;;4.40;0.68;;;10.00;99.90;;;;;;5025675;28;20042;-58
2022/03/12 10:59:55;;;;;;;4.15;1.55;;;10.00;99.90;;;;;;5022617;28;20050;-59
2022/03/12 11:02:24;;;;;;;5.32;1.52;;;9.90;99.90;;;;;;5023265;28;20869;-58
2022/03/12 11:04:52;;;;;;;8.85;1.33;;;9.80;99.90;;;;;;4998327;28;20046;-59
2022/03/12 11:07:25;;;;;;;2.38;0.90;;;9.80;99.90;;;;;;5023580;28;20604;-59
2022/03/12 11:09:54;;;;;;;5.10;1.02;;;9.70;99.90;;;;;;5025736;28;20045;-58
2022/03/12 11:12:30;;;;;;;6.03;1.05;;;9.70;99.90;;;;;;5008089;28;20049;-59
2022/03/12 11:15:03;;;;;;;1.77;0.90;;;9.70;99.90;;;;;;5026119;28;20052;-58
2022/03/12 11:17:45;;;;;;;4.38;1.00;;;9.80;99.90;;;;;;5025364;28;20052;-58
2022/03/12 11:20:18;;;;;;;4.38;0.80;;;9.90;99.90;;;;;;5025530;28;20405;-58
2022/03/12 11:23:08;;;;;;;6.53;1.00;;;10.00;99.90;;;;;;5024210;28;20053;-58
2022/03/12 11:25:57;;;;;;;9.15;1.50;;;10.10;99.90;;;;;;5021344;28;20056;-57
2022/03/12 11:28:27;;;;;;;3.30;0.65;;;10.10;99.90;;;;;;5023331;28;20045;-57
2022/03/12 11:30:55;;;;;;;;;;;10.10;99.90;;;;;;5031095;28;20052;-57
2022/03/12 11:33:26;;;;;;;5.75;0.68;;;10.00;99.90;;;;;;5026347;28;19921;-59
2022/03/12 11:36:06;;;;;;;2.80;0.73;;;9.90;99.90;;;;;;5015748;28;20628;-57
2022/03/12 11:38:33;;;;;;;3.97;0.50;;;9.90;99.90;;;;;;5029290;28;20049;-57
2022/03/12 11:41:24;;;;;;;2.10;0.95;;;10.00;99.90;;;;;;5025375;28;20413;-57
2022/03/12 11:43:52;;;;;;;4.38;0.75;;;10.10;99.90;;;;;;5021695;28;20428;-58
2022/03/12 11:46:20;;;;;;;5.30;0.90;;;10.20;99.90;;;;;;5017347;28;20056;-59
2022/03/12 11:48:48;;;;;;;3.72;0.80;;;10.60;99.90;;;;;;5014047;28;20046;-59
2022/03/12 11:51:19;;;;;;;1.55;0.60;;;11.00;99.90;;;;;;5019913;28;20054;-58
2022/03/12 11:53:47;;;;;;;1.52;0.50;;;11.40;99.90;;;;;;5017052;28;20060;-59
2022/03/12 11:56:16;;;;;;;3.00;0.50;;;11.90;99.90;;;;;;5013415;28;20042;-59
2022/03/12 11:58:45;;;;;;;1.77;0.50;;;12.10;99.90;;;;;;5021477;28;20052;-58
2022/03/12 12:01:20;;;;;;;9.82;0.70;;;12.30;99.90;;;;;;5009887;28;20052;-58
2022/03/12 12:03:53;;;;;;;3.55;0.80;;;12.50;99.90;;;;;;5016627;28;20061;-58
2022/03/12 12:06:21;;;;;;;5.30;0.90;;;12.70;99.90;;;;;;5017731;28;20042;-58
2022/03/12 12:08:51;;;;;;;3.90;0.80;;;12.90;99.90;;;;;;5015338;28;20050;-58
2022/03/12 12:11:19;;;;;;;5.88;0.82;;;12.90;99.90;;;;;;5023675;28;20477;-58
2022/03/12 12:13:46;;;;;;;6.20;0.68;;;13.10;99.90;;;;;;5024200;28;20049;-58
2022/03/12 12:16:16;;;;;;;6.13;0.70;;;13.30;99.90;;;;;;5009362;28;20056;-58
2022/03/12 12:18:45;;;;;;;3.65;0.77;;;13.40;99.90;;;;;;5007090;28;20555;-58
2022/03/12 12:21:17;;;;;;;2.75;0.77;;;13.50;99.90;;;;;;5010561;28;20046;-57
2022/03/12 12:23:47;;;;;;;2.55;0.40;;;13.50;99.90;;;;;;5022083;28;20053;-58
2022/03/12 12:26:15;;;;;;;6.25;0.90;;;13.40;99.90;;;;;;5029970;28;20048;-58
2022/03/12 12:28:48;;;;;;;3.40;0.60;;;13.20;99.90;;;;;;5030135;28;20053;-58
2022/03/12 12:31:23;;;;;;;5.22;0.90;;;13.10;99.90;;;;;;5013145;28;20060;-58
2022/03/12 12:33:54;;;;;;;5.90;1.05;;;12.80;99.90;;;;;;5028620;28;20049;-58
2022/03/12 12:36:22;;;;;;;2.38;0.40;;;12.70;99.90;;;;;;5010694;28;20414;-58
2022/03/12 12:39:12;;;;;;;4.82;0.60;;;12.50;99.90;;;;;;5022127;28;20072;-58
2022/03/12 12:41:53;;;;;;;4.30;0.80;;;12.30;99.90;;;;;;5030103;28;20076;-58
2022/03/12 12:44:43;;;;;;;1.23;0.40;;;12.50;99.90;;;;;;5012379;28;20045;-58
2022/03/12 12:47:18;;;;;;;2.92;0.77;;;13.20;99.90;;;;;;5029875;28;20060;-58
2022/03/12 12:49:54;;;;;;;1.95;0.57;;;13.80;99.90;;;;;;5005339;28;20425;-58
2022/03/12 12:52:23;;;;;;;2.83;0.65;;;14.10;98.80;;;;;;5010158;28;20088;-59
2022/03/12 12:54:58;;;;;;;3.28;0.88;;;14.20;97.60;;;;;;5029679;28;20052;-58
2022/03/12 12:57:40;;;;;;;5.35;0.65;;;14.50;99.00;;;;;;5011970;28;20053;-58
2022/03/12 13:00:20;;;;;;;3.88;0.88;;;14.90;92.90;;;;;;5029567;28;20054;-58
2022/03/12 13:02:49;;;;;;;2.85;0.63;;;14.90;91.90;;;;;;5010757;28;20115;-60
2022/03/12 13:05:18;;;;;;;4.70;0.75;;;14.90;91.70;;;;;;5015703;28;20045;-58
2022/03/12 13:08:00;;;;;;;5.15;0.73;;;14.90;96.10;;;;;;5010391;28;20057;-58
2022/03/12 13:10:29;;;;;;;6.60;0.57;;;15.10;94.30;;;;;;5026592;28;20057;-58